createdAt,value
2022-08-07T00:12:06.353Z,99.90
2022-08-07T00:27:16.826Z,99.90
2022-08-07T04:06:04.696Z,99.90
2022-08-07T04:09:04.207Z,99.90
2022-08-07T05:14:54.136Z,99.90
2022-08-07T05:16:28.788Z,99.90
2022-08-07T05:19:07.991Z,99.90
2022-08-07T05:22:00.713Z,99.90
2022-08-07T07:26:51.781Z,99.90
2022-08-07T07:37:45.100Z,99.90
2022-08-07T07:56:35.204Z,99.90
2022-08-07T07:59:16.047Z,99.90
2022-08-07T08:02:04.098Z,99.90
2022-08-07T08:12:36.750Z,97.70
2022-08-07T08:50:04.607Z,91.40
2022-08-07T08:59:54.442Z,89.50
2022-08-07T09:11:43.023Z,82.70
2022-08-07T09:14:33.652Z,83.20
2022-08-07T09:17:59.717Z,81.10
2022-08-07T09:20:52.861Z,81.10
2022-08-07T09:24:53.977Z,78.50
2022-08-07T09:27:19.864Z,77.50
2022-08-07T09:30:55.240Z,75.70
2022-08-07T09:34:05.980Z,76.10
2022-08-07T09:37:05.053Z,77.60
2022-08-07T09:44:32.724Z,79.70
2022-08-07T09:48:30.093Z,81.00
2022-08-07T09:52:15.606Z,80.40
2022-08-07T09:54:39.070Z,79.00
2022-08-07T10:01:51.132Z,76.70
2022-08-07T10:15:18.636Z,78.60
2022-08-07T10:16:19.254Z,73.10
2022-08-07T10:19:38.391Z,70.20
2022-08-07T10:22:47.772Z,69.90
2022-08-07T10:25:55.782Z,68.10
2022-08-07T10:28:49.956Z,65.00
2022-08-07T10:31:31.395Z,64.80
2022-08-07T10:34:27.352Z,62.70
2022-08-07T10:37:14.708Z,60.40
2022-08-07T10:40:05.627Z,61.20
2022-08-07T10:42:57.297Z,58.20
2022-08-07T10:45:57.368Z,57.00
2022-08-07T10:48:36.708Z,55.40
2022-08-07T10:51:57.271Z,54.80
2022-08-07T10:54:53.354Z,53.20
2022-08-07T10:57:56.665Z,53.30
2022-08-07T11:00:39.172Z,52.70
2022-08-07T11:03:28.119Z,53.20
2022-08-07T11:06:42.127Z,53.40
2022-08-07T11:10:08.773Z,53.20
2022-08-07T11:12:35.538Z,52.60
2022-08-07T11:15:17.521Z,52.90
2022-08-07T11:17:56.919Z,54.70
2022-08-07T11:20:56.792Z,53.40
2022-08-07T11:23:38.641Z,54.30
2022-08-07T11:26:26.207Z,54.50
2022-08-07T11:29:48.144Z,52.40
2022-08-07T11:32:40.585Z,51.30
2022-08-07T11:35:16.666Z,49.80
2022-08-07T11:38:17.471Z,48.90
2022-08-07T11:41:22.385Z,48.60
2022-08-07T11:44:12.416Z,47.30
2022-08-07T11:46:58.804Z,46.00
2022-08-07T11:50:18.741Z,44.90
2022-08-07T11:52:38.585Z,44.70
2022-08-07T11:56:09.115Z,45.30
2022-08-07T11:58:33.503Z,45.60
2022-08-07T12:02:00.696Z,45.60
2022-08-07T12:04:50.908Z,46.30
2022-08-07T12:07:27.902Z,45.50
2022-08-07T12:10:15.623Z,45.50
2022-08-07T12:12:57.099Z,46.70
2022-08-07T12:15:46.529Z,45.30
2022-08-07T12:18:22.017Z,44.20
2022-08-07T12:21:33.593Z,44.00
2022-08-07T12:24:38.081Z,45.10
2022-08-07T12:27:16.509Z,45.20
2022-08-07T12:29:51.811Z,44.70
2022-08-07T12:32:31.172Z,45.20
2022-08-07T12:35:02.008Z,43.30
2022-08-07T12:38:09.542Z,43.20
2022-08-07T12:40:46.356Z,43.90
2022-08-07T12:43:10.557Z,41.70
2022-08-07T12:46:16.022Z,42.60
2022-08-07T12:49:25.401Z,43.20
2022-08-07T12:52:18.066Z,44.20
2022-08-07T12:55:05.108Z,43.30
2022-08-07T12:57:38.991Z,43.50
2022-08-07T13:00:49.495Z,44.00
2022-08-07T13:04:02.278Z,43.10
2022-08-07T13:07:01.646Z,42.40
2022-08-07T13:10:38.277Z,43.00
2022-08-07T13:13:48.031Z,43.00
2022-08-07T13:16:32.477Z,42.50
2022-08-07T13:19:06.390Z,43.50
2022-08-07T13:22:19.771Z,42.50
2022-08-07T13:25:15.228Z,42.50
2022-08-07T13:28:10.596Z,42.80
2022-08-07T13:30:48.946Z,44.20
2022-08-07T13:34:33.726Z,44.30
2022-08-07T13:36:28.331Z,44.90
2022-08-07T13:39:05.036Z,43.60
2022-08-07T13:41:47.617Z,44.70
2022-08-07T13:44:25.835Z,44.70
2022-08-07T13:46:59.347Z,44.30
2022-08-07T13:50:34.994Z,44.50
2022-08-07T13:52:31.780Z,45.00
2022-08-07T13:55:07.099Z,44.20
2022-08-07T13:57:38.797Z,42.60
2022-08-07T14:00:35.677Z,42.40
2022-08-07T14:03:41.261Z,43.00
2022-08-07T14:06:07.746Z,43.40
2022-08-07T14:08:40.600Z,44.00
2022-08-07T14:11:14.772Z,43.70
2022-08-07T14:13:45.177Z,43.90
2022-08-07T14:16:16.240Z,43.60
2022-08-07T14:18:57.201Z,44.40
2022-08-07T14:22:01.070Z,44.60
2022-08-07T14:24:28.051Z,45.60
2022-08-07T14:27:02.512Z,46.10
2022-08-07T14:30:09.807Z,45.40
2022-08-07T14:32:46.087Z,45.80
2022-08-07T14:35:43.200Z,46.30
2022-08-07T14:38:09.241Z,46.30
2022-08-07T14:41:02.248Z,46.20
2022-08-07T14:43:57.699Z,47.30
2022-08-07T14:52:10.506Z,48.90
2022-08-07T14:54:42.124Z,49.30
2022-08-07T14:57:18.755Z,49.80
2022-08-07T15:02:37.486Z,51.50
2022-08-07T15:05:55.123Z,51.60
2022-08-07T15:08:56.432Z,52.00
2022-08-07T15:20:31.899Z,52.90
2022-08-07T15:34:17.363Z,54.60
2022-08-07T15:41:00.387Z,54.70
2022-08-07T15:57:48.682Z,56.10
2022-08-07T16:04:40.224Z,56.20
2022-08-07T16:31:58.595Z,58.80
2022-08-07T16:34:55.905Z,59.90
2022-08-07T16:38:03.447Z,60.80
2022-08-07T17:00:30.093Z,63.80
2022-08-07T17:23:18.154Z,67.10
2022-08-07T17:30:14.142Z,68.60
2022-08-07T17:34:09.814Z,68.80
2022-08-07T17:36:57.484Z,68.50
2022-08-07T17:40:30.389Z,69.20
2022-08-07T17:44:02.859Z,70.10
2022-08-07T17:47:38.435Z,70.80
2022-08-07T17:50:47.209Z,71.40
2022-08-07T17:54:11.556Z,72.10
2022-08-07T17:57:02.132Z,72.60
2022-08-07T18:18:46.693Z,77.60
2022-08-07T18:22:00.630Z,79.70
2022-08-07T18:25:40.239Z,79.70
2022-08-07T19:10:47.865Z,93.00
2022-08-07T19:49:08.991Z,98.00
2022-08-07T19:52:00.657Z,99.50
2022-08-07T19:59:13.216Z,99.90
2022-08-07T20:02:51.651Z,99.90
2022-08-07T20:06:30.481Z,99.90
2022-08-07T20:10:37.234Z,99.90
2022-08-07T20:12:42.879Z,99.90
2022-08-07T20:19:19.004Z,99.90
2022-08-07T20:41:05.586Z,99.90
2022-08-07T20:47:19.583Z,99.90
2022-08-07T20:54:04.334Z,99.90
2022-08-07T20:57:17.512Z,99.90
2022-08-07T21:00:17.149Z,99.90
2022-08-07T21:04:18.827Z,99.90
2022-08-07T21:10:48.633Z,99.90
2022-08-07T21:18:00.976Z,99.90
2022-08-07T21:20:56.201Z,99.90
2022-08-07T21:32:46.679Z,99.90
2022-08-07T21:36:05.888Z,99.90
2022-08-07T21:46:39.842Z,99.90
2022-08-07T22:07:59.839Z,99.90
2022-08-07T22:14:59.887Z,99.90
2022-08-07T22:18:11.098Z,99.90
2022-08-07T22:39:52.924Z,99.90
2022-08-07T22:43:34.658Z,99.90
